Time;durP1;ratioP1;P1;durP2;ratioP2;P2;SDS_P1;SDS_P2;PMS_P1;PMS_P2;Temp;Humidity;BMP_temperature;BMP_pressure;BME280_temperature;BME280_humidity;BME280_pressure;Samples;Min_cycle;Max_cycle;Signal;HPM_P1;HPM_P2
2021/12/14 00:03:50;;;;;;;30.83;8.40;;;;;;;;;;10356510;28;20049;-71
2021/12/14 00:08:56;;;;;;;17.53;6.33;;;;;;;;;;10322437;28;20039;-72
2021/12/14 00:14:12;;;;;;;22.60;6.47;;;;;;;;;;10323153;28;20070;-71
2021/12/14 00:19:17;;;;;;;14.73;5.33;;;;;;;;;;10314998;28;20046;-72
2021/12/14 00:24:20;;;;;;;15.30;5.93;;;;;;;;;;10321120;28;20133;-70
2021/12/14 00:29:24;;;;;;;22.43;6.70;;;;;;;;;;10322652;28;20054;-71
2021/12/14 00:34:37;;;;;;;14.33;4.80;;;;;;;;;;10314523;28;20125;-70
2021/12/14 00:39:40;;;;;;;24.70;6.90;;;;;;;;;;10315277;28;20129;-71
2021/12/14 00:44:43;;;;;;;18.63;5.63;;;;;;;;;;10318814;28;20100;-70
2021/12/14 00:49:48;;;;;;;19.83;5.87;;;;;;;;;;10319229;28;20034;-70
2021/12/14 00:54:51;;;;;;;24.07;6.60;;;;;;;;;;10318066;28;20096;-70
2021/12/14 00:59:54;;;;;;;9.68;2.72;;;;;;;;;;10326574;28;20125;-70
2021/12/14 01:05:01;;;;;;;15.30;5.70;;;;;;;;;;10323344;28;20113;-70
2021/12/14 01:10:06;;;;;;;13.80;4.33;;;;;;;;;;10335882;28;20069;-70
2021/12/14 01:15:24;;;;;;;11.90;4.53;;;;;;;;;;10321876;28;20121;-70
2021/12/14 01:20:32;;;;;;;10.47;3.37;;;;;;;;;;10322070;28;20491;-70
2021/12/14 01:25:37;;;;;;;15.63;5.27;;;;;;;;;;10325322;28;20038;-70
2021/12/14 01:30:50;;;;;;;12.37;4.30;;;;;;;;;;10319724;28;20133;-70
2021/12/14 01:35:55;;;;;;;12.97;4.27;;;;;;;;;;10326860;28;20030;-69
2021/12/14 01:41:00;;;;;;;15.60;4.53;;;;;;;;;;10320028;28;20042;-70
2021/12/14 01:46:09;;;;;;;6.50;2.30;;;;;;;;;;10325589;28;20146;-70
2021/12/14 01:51:15;;;;;;;15.37;4.43;;;;;;;;;;10313222;28;20042;-70
2021/12/14 01:56:23;;;;;;;11.90;4.20;;;;;;;;;;10324584;28;20050;-70
2021/12/14 02:01:34;;;;;;;5.23;2.10;;;;;;;;;;10325517;28;20054;-70
2021/12/14 02:06:39;;;;;;;15.93;4.20;;;;;;;;;;10317493;28;20368;-70
2021/12/14 02:11:52;;;;;;;2.10;1.30;;;;;;;;;;10318683;28;20089;-70
2021/12/14 02:17:04;;;;;;;6.47;2.20;;;;;;;;;;10327177;28;20081;-71
2021/12/14 02:22:19;;;;;;;6.60;1.87;;;;;;;;;;10322059;28;20038;-70
2021/12/14 02:27:23;;;;;;;7.17;1.93;;;;;;;;;;10322556;28;20042;-70
2021/12/14 02:32:27;;;;;;;2.53;0.93;;;;;;;;;;10319955;28;20117;-70
2021/12/14 02:37:39;;;;;;;4.60;1.70;;;;;;;;;;10319726;28;20053;-70
2021/12/14 02:42:42;;;;;;;9.43;3.20;;;;;;;;;;10321084;28;20454;-69
2021/12/14 02:47:45;;;;;;;5.47;2.03;;;;;;;;;;10321081;28;20045;-69
2021/12/14 02:52:50;;;;;;;6.23;2.30;;;;;;;;;;10321243;28;20076;-69
2021/12/14 02:57:55;;;;;;;7.93;3.20;;;;;;;;;;10330293;28;20046;-70
2021/12/14 03:02:58;;;;;;;6.27;2.43;;;;;;;;;;10329571;28;20434;-70
2021/12/14 03:08:07;;;;;;;6.40;2.55;;;;;;;;;;10331303;28;20048;-71
2021/12/14 03:13:11;;;;;;;4.80;1.97;;;;;;;;;;10323736;28;20137;-70
2021/12/14 03:18:16;;;;;;;4.53;1.85;;;;;;;;;;10321799;28;20046;-70
2021/12/14 03:23:21;;;;;;;4.57;1.70;;;;;;;;;;10312964;28;20591;-70
2021/12/14 03:28:26;;;;;;;3.50;1.53;;;;;;;;;;10320035;28;20038;-69
2021/12/14 03:33:33;;;;;;;2.65;1.27;;;;;;;;;;10319546;28;20105;-69
2021/12/14 03:38:39;;;;;;;3.03;1.27;;;;;;;;;;10315757;28;20482;-69
2021/12/14 03:43:43;;;;;;;5.67;1.77;;;;;;;;;;10321027;28;20038;-70
2021/12/14 03:48:46;;;;;;;;;;;;;;;;;;10316880;28;20035;-70
2021/12/14 03:53:51;;;;;;;2.83;1.50;;;;;;;;;;10315559;28;19922;-69
2021/12/14 03:58:55;;;;;;;1.37;0.90;;;;;;;;;;10317385;28;20034;-69
2021/12/14 04:04:04;;;;;;;6.15;2.42;;;;;;;;;;10318741;28;20094;-69
2021/12/14 04:09:11;;;;;;;3.37;1.53;;;;;;;;;;10316795;28;20052;-69
2021/12/14 04:14:15;;;;;;;7.10;2.20;;;;;;;;;;10316727;28;20085;-70
2021/12/14 04:19:39;;;;;;;5.97;1.50;;;;;;;;;;10306545;28;20057;-69
2021/12/14 04:25:07;;;;;;;7.03;2.37;;;;;;;;;;10315843;28;20043;-69
2021/12/14 04:30:12;;;;;;;8.70;2.40;;;;;;;;;;10319256;28;20108;-70
2021/12/14 04:35:15;;;;;;;3.80;1.70;;;;;;;;;;10328773;28;21117;-70
2021/12/14 04:40:36;;;;;;;7.95;2.53;;;;;;;;;;10330867;28;20050;-70
2021/12/14 04:56:27;;;;;;;4.23;2.00;;;;;;;;;;10329424;28;20125;-71
2021/12/14 05:01:32;;;;;;;6.13;1.60;;;;;;;;;;10324472;28;20089;-69
2021/12/14 05:06:47;;;;;;;5.60;1.70;;;;;;;;;;10327029;28;20038;-68
2021/12/14 05:11:53;;;;;;;2.60;1.53;;;;;;;;;;10323399;28;20469;-70
2021/12/14 05:16:57;;;;;;;6.23;1.77;;;;;;;;;;10319555;28;20058;-68
2021/12/14 05:22:05;;;;;;;3.30;0.93;;;;;;;;;;10320563;28;20126;-70
2021/12/14 05:27:11;;;;;;;5.70;2.37;;;;;;;;;;10328398;28;20069;-69
2021/12/14 05:32:17;;;;;;;7.80;2.27;;;;;;;;;;10317599;28;20145;-71
2021/12/14 05:37:23;;;;;;;5.67;2.23;;;;;;;;;;10321820;28;20128;-71
2021/12/14 05:47:49;;;;;;;6.80;2.33;;;;;;;;;;10320085;28;20038;-72
2021/12/14 05:52:54;;;;;;;6.13;1.97;;;;;;;;;;10323965;28;20039;-71
2021/12/14 05:57:59;;;;;;;7.90;2.70;;;;;;;;;;10368753;22;20101;-71
2021/12/14 06:03:02;;;;;;;6.37;2.07;;;;;;;;;;10338690;28;20604;-73
2021/12/14 06:08:05;;;;;;;6.67;2.17;;;;;;;;;;10330261;28;20038;-73
2021/12/14 06:13:10;;;;;;;1.53;0.90;;;;;;;;;;10316448;28;20494;-72
2021/12/14 06:18:14;;;;;;;4.60;1.73;;;;;;;;;;10317506;28;20055;-74
2021/12/14 06:23:23;;;;;;;2.92;0.85;;;;;;;;;;10319738;28;20097;-74
2021/12/14 06:28:29;;;;;;;4.33;1.97;;;;;;;;;;10313748;28;20058;-73
2021/12/14 06:33:33;;;;;;;4.63;1.70;;;;;;;;;;10320744;28;20039;-75
2021/12/14 06:38:36;;;;;;;3.07;1.27;;;;;;;;;;10324444;28;20122;-78
2021/12/14 06:43:43;;;;;;;4.87;2.03;;;;;;;;;;10332263;28;20171;-75
2021/12/14 06:48:48;;;;;;;2.23;1.17;;;;;;;;;;10326448;28;20593;-76
2021/12/14 06:53:54;;;;;;;6.17;2.07;;;;;;;;;;10321249;28;20441;-75
2021/12/14 06:59:00;;;;;;;12.27;3.53;;;;;;;;;;10318611;28;20046;-75
2021/12/14 07:04:05;;;;;;;5.50;2.53;;;;;;;;;;10319867;28;20129;-74
2021/12/14 07:09:11;;;;;;;4.80;1.93;;;;;;;;;;10331339;28;20042;-76
2021/12/14 07:14:22;;;;;;;5.83;2.03;;;;;;;;;;10310683;28;20031;-74
2021/12/14 07:19:39;;;;;;;5.70;2.07;;;;;;;;;;10312093;28;20389;-73
2021/12/14 07:24:42;;;;;;;9.23;3.70;;;;;;;;;;10313795;28;20034;-73
2021/12/14 07:29:46;;;;;;;5.20;1.70;;;;;;;;;;10308634;28;20038;-72
2021/12/14 07:34:49;;;;;;;5.23;1.90;;;;;;;;;;10315813;28;20636;-74
2021/12/14 07:39:53;;;;;;;4.75;2.50;;;;;;;;;;10319350;28;20050;-74
2021/12/14 07:44:57;;;;;;;5.28;2.50;;;;;;;;;;10315234;28;20114;-74
2021/12/14 07:50:00;;;;;;;4.15;1.80;;;;;;;;;;10311329;28;20046;-73
2021/12/14 07:55:06;;;;;;;3.40;1.87;;;;;;;;;;10315650;28;20057;-74
2021/12/14 08:00:12;;;;;;;3.40;1.90;;;;;;;;;;10313722;28;20122;-72
2021/12/14 08:05:17;;;;;;;5.22;2.10;;;;;;;;;;10312685;28;20031;-74
2021/12/14 08:10:23;;;;;;;4.43;2.22;;;;;;;;;;10307031;28;20054;-72
2021/12/14 08:15:29;;;;;;;3.42;1.90;;;;;;;;;;10312559;28;20077;-72
2021/12/14 08:20:33;;;;;;;4.33;1.57;;;;;;;;;;10309489;28;20394;-73
2021/12/14 08:25:36;;;;;;;3.67;2.22;;;;;;;;;;10313125;28;20053;-73
2021/12/14 08:30:43;;;;;;;2.43;1.67;;;;;;;;;;10310286;28;20038;-74
2021/12/14 08:35:47;;;;;;;3.77;1.73;;;;;;;;;;10329464;28;20038;-73
2021/12/14 08:40:52;;;;;;;8.98;2.83;;;;;;;;;;10312984;28;20046;-70
2021/12/14 08:45:58;;;;;;;5.83;2.87;;;;;;;;;;10313241;28;20042;-72
2021/12/14 08:51:03;;;;;;;5.22;2.15;;;;;;;;;;10308814;28;20133;-72
2021/12/14 08:56:08;;;;;;;5.18;2.45;;;;;;;;;;10315023;28;20097;-73
2021/12/14 09:01:13;;;;;;;;;;;;;;;;;;10313770;28;20509;-73
2021/12/14 09:06:20;;;;;;;4.75;2.33;;;;;;;;;;10316776;28;19948;-73
2021/12/14 09:11:24;;;;;;;6.65;2.75;;;;;;;;;;10317395;28;20514;-74
2021/12/14 09:16:28;;;;;;;5.97;2.28;;;;;;;;;;10314986;28;20049;-73
2021/12/14 09:21:36;;;;;;;5.78;2.85;;;;;;;;;;10314536;28;20069;-72
2021/12/14 09:26:41;;;;;;;1.92;1.20;;;;;;;;;;10316349;28;20468;-72
2021/12/14 09:31:47;;;;;;;3.95;2.22;;;;;;;;;;10319001;28;20097;-73
2021/12/14 09:36:52;;;;;;;4.18;2.17;;;;;;;;;;10320947;28;20179;-72
2021/12/14 09:41:55;;;;;;;3.85;2.20;;;;;;;;;;10325068;28;20202;-72
2021/12/14 09:47:00;;;;;;;3.78;2.38;;;;;;;;;;10326875;28;20061;-72
2021/12/14 09:52:06;;;;;;;3.10;2.40;;;;;;;;;;10316875;28;20101;-73
2021/12/14 09:57:11;;;;;;;3.72;1.83;;;;;;;;;;10317180;28;20058;-74
2021/12/14 10:02:16;;;;;;;5.07;2.35;;;;;;;;;;10328804;28;20061;-72
2021/12/14 10:07:22;;;;;;;4.38;2.30;;;;;;;;;;10339547;28;20042;-72
2021/12/14 10:12:50;;;;;;;5.95;3.10;;;;;;;;;;10335723;28;20101;-73
2021/12/14 10:17:54;;;;;;;5.35;2.50;;;;;;;;;;10319833;28;20056;-72
2021/12/14 10:22:56;;;;;;;;;;;;;;;;;;10323461;28;20408;-72
2021/12/14 10:28:01;;;;;;;3.95;2.10;;;;;;;;;;10319232;28;19922;-73
2021/12/14 10:33:05;;;;;;;4.53;2.47;;;;;;;;;;10319391;28;20310;-73
2021/12/14 10:38:14;;;;;;;6.95;3.00;;;;;;;;;;10312972;28;20069;-72
2021/12/14 10:43:19;;;;;;;7.40;2.72;;;;;;;;;;10312373;28;20525;-73
2021/12/14 10:48:24;;;;;;;5.47;2.60;;;;;;;;;;10314759;28;20731;-70
2021/12/14 10:53:27;;;;;;;4.13;2.20;;;;;;;;;;10311968;28;20309;-74
2021/12/14 10:58:32;;;;;;;5.18;2.90;;;;;;;;;;10314666;28;20199;-72
2021/12/14 11:03:37;;;;;;;4.82;3.08;;;;;;;;;;10320945;28;20046;-72
2021/12/14 11:08:47;;;;;;;5.47;3.45;;;;;;;;;;10320176;28;20359;-73
2021/12/14 11:14:01;;;;;;;7.15;2.75;;;;;;;;;;10322805;28;20120;-73
2021/12/14 11:19:05;;;;;;;10.27;5.05;;;;;;;;;;10312028;28;20395;-72
2021/12/14 11:24:08;;;;;;;3.83;2.45;;;;;;;;;;10311645;28;20043;-73
2021/12/14 11:29:16;;;;;;;5.07;2.60;;;;;;;;;;10302620;28;20104;-72
2021/12/14 11:34:29;;;;;;;4.10;2.50;;;;;;;;;;10319531;28;20161;-72
2021/12/14 11:39:36;;;;;;;7.00;2.90;;;;;;;;;;10326077;28;20030;-73
2021/12/14 11:44:42;;;;;;;4.53;2.20;;;;;;;;;;10318922;28;20062;-72
2021/12/14 11:49:48;;;;;;;5.15;2.95;;;;;;;;;;10309595;28;20034;-72
2021/12/14 11:54:51;;;;;;;6.00;2.13;;;;;;;;;;10309687;28;20043;-73
2021/12/14 12:00:02;;;;;;;5.63;2.90;;;;;;;;;;10313145;22;20055;-79
2021/12/14 12:05:13;;;;;;;5.65;3.05;;;;;;;;;;10301819;28;20039;-80
2021/12/14 12:10:16;;;;;;;5.50;2.58;;;;;;;;;;10302603;28;20046;-80
2021/12/14 12:15:25;;;;;;;3.47;1.93;;;;;;;;;;10304907;28;20051;-79
2021/12/14 12:20:30;;;;;;;5.22;2.80;;;;;;;;;;10297569;28;20057;-81
2021/12/14 12:25:36;;;;;;;6.72;3.50;;;;;;;;;;10295379;28;20049;-80
2021/12/14 12:30:44;;;;;;;4.63;2.40;;;;;;;;;;10289469;28;20047;-80
2021/12/14 12:35:49;;;;;;;8.60;4.47;;;;;;;;;;10301960;28;20042;-80
2021/12/14 12:40:54;;;;;;;7.20;3.03;;;;;;;;;;10302427;28;20201;-81
2021/12/14 12:46:01;;;;;;;5.50;3.70;;;;;;;;;;10296964;28;20039;-80
2021/12/14 12:51:04;;;;;;;7.63;3.75;;;;;;;;;;10297482;28;20041;-81
2021/12/14 12:56:08;;;;;;;8.18;3.97;;;;;;;;;;10305209;28;20450;-79
2021/12/14 13:01:13;;;;;;;6.53;3.40;;;;;;;;;;10300611;28;20229;-80
2021/12/14 13:06:20;;;;;;;8.63;4.15;;;;;;;;;;10304148;28;20114;-81
2021/12/14 13:11:24;;;;;;;10.55;4.03;;;;;;;;;;10306185;28;20058;-82
2021/12/14 13:16:30;;;;;;;9.32;3.88;;;;;;;;;;10307335;28;20039;-79
2021/12/14 13:21:45;;;;;;;8.00;3.55;;;;;;;;;;10307237;28;20062;-80
2021/12/14 13:26:50;;;;;;;4.88;2.40;;;;;;;;;;10355680;23;20382;-70
2021/12/14 13:31:56;;;;;;;9.48;4.00;;;;;;;;;;10306361;28;20034;-69
2021/12/14 13:37:15;;;;;;;10.10;4.05;;;;;;;;;;10329139;22;20050;-70
2021/12/14 13:42:22;;;;;;;6.07;2.95;;;;;;;;;;10312559;28;20395;-72
2021/12/14 13:47:27;;;;;;;9.98;4.20;;;;;;;;;;10315421;28;20038;-72
2021/12/14 13:52:30;;;;;;;5.50;1.90;;;;;;;;;;10295145;28;20039;-72
2021/12/14 13:57:40;;;;;;;10.07;3.55;;;;;;;;;;10277497;28;20027;-72
2021/12/14 14:02:45;;;;;;;9.50;3.20;;;;;;;;;;10288903;28;20121;-71
2021/12/14 14:07:50;;;;;;;3.45;1.40;;;;;;;;;;10278629;28;20043;-73
2021/12/14 14:12:55;;;;;;;7.35;3.10;;;;;;;;;;10284828;28;20118;-72
2021/12/14 14:18:00;;;;;;;6.63;2.45;;;;;;;;;;10288749;28;20169;-72
2021/12/14 14:23:11;;;;;;;9.88;3.33;;;;;;;;;;10292397;28;20043;-72
2021/12/14 14:28:32;;;;;;;6.97;2.83;;;;;;;;;;10278903;28;20555;-71
2021/12/14 14:33:46;;;;;;;9.00;3.70;;;;;;;;;;10285106;28;20512;-72
2021/12/14 14:38:50;;;;;;;8.82;2.97;;;;;;;;;;10295846;28;20483;-72
2021/12/14 14:43:54;;;;;;;9.32;3.47;;;;;;;;;;10305648;28;20271;-72
2021/12/14 14:48:57;;;;;;;;;;;;;;;;;;10261998;28;20070;-72
2021/12/14 14:54:01;;;;;;;8.93;3.72;;;;;;;;;;10252672;28;20282;-71
2021/12/14 14:59:15;;;;;;;7.35;2.97;;;;;;;;;;10278807;28;20035;-72
2021/12/14 15:04:19;;;;;;;8.35;3.45;;;;;;;;;;10291261;28;20046;-73
2021/12/14 15:09:27;;;;;;;8.82;3.25;;;;;;;;;;10291473;28;20038;-73
2021/12/14 15:14:31;;;;;;;7.45;3.45;;;;;;;;;;10279304;28;20050;-73
2021/12/14 15:19:38;;;;;;;10.25;3.50;;;;;;;;;;10283012;28;20043;-72
2021/12/14 15:24:44;;;;;;;7.10;3.15;;;;;;;;;;10283179;28;20042;-71
2021/12/14 15:29:48;;;;;;;11.32;5.18;;;;;;;;;;10283702;28;20039;-71
2021/12/14 15:34:52;;;;;;;7.88;3.33;;;;;;;;;;10275318;28;20065;-72
2021/12/14 15:39:58;;;;;;;9.73;3.50;;;;;;;;;;10279546;28;20510;-71
2021/12/14 15:45:01;;;;;;;8.23;3.25;;;;;;;;;;10290708;28;20066;-72
2021/12/14 15:50:15;;;;;;;9.10;3.17;;;;;;;;;;10281436;28;20057;-73
2021/12/14 15:55:19;;;;;;;13.43;4.75;;;;;;;;;;10271158;28;20042;-72
2021/12/14 16:00:22;;;;;;;10.98;3.92;;;;;;;;;;10264178;28;20046;-71
2021/12/14 16:05:25;;;;;;;8.70;3.50;;;;;;;;;;10269186;28;20403;-72
2021/12/14 16:10:33;;;;;;;11.07;4.57;;;;;;;;;;10264394;28;20038;-72
2021/12/14 16:15:37;;;;;;;7.32;3.85;;;;;;;;;;10271920;28;20111;-73
2021/12/14 16:20:40;;;;;;;;;;;;;;;;;;10273183;28;20403;-71
2021/12/14 16:25:45;;;;;;;10.68;3.53;;;;;;;;;;10287194;28;20175;-72
2021/12/14 16:30:49;;;;;;;8.48;4.03;;;;;;;;;;10303841;28;20487;-72
2021/12/14 16:35:54;;;;;;;10.32;4.38;;;;;;;;;;10292731;28;20042;-72
2021/12/14 16:40:56;;;;;;;;;;;;;;;;;;10285888;28;20035;-72
2021/12/14 16:46:01;;;;;;;12.82;5.55;;;;;;;;;;10279307;28;19926;-72
2021/12/14 16:51:05;;;;;;;12.02;6.03;;;;;;;;;;10286974;28;20043;-72
2021/12/14 16:56:11;;;;;;;17.08;6.95;;;;;;;;;;10262776;28;20138;-72
2021/12/14 17:01:16;;;;;;;13.40;6.30;;;;;;;;;;10276167;28;20043;-73
2021/12/14 17:06:19;;;;;;;13.15;5.63;;;;;;;;;;10280445;28;20031;-72
2021/12/14 17:11:21;;;;;;;14.40;5.95;;;;;;;;;;10275152;28;20422;-72
2021/12/14 17:16:28;;;;;;;11.15;5.47;;;;;;;;;;10290433;28;20085;-73
2021/12/14 17:21:33;;;;;;;13.10;5.97;;;;;;;;;;10278132;28;20406;-71
2021/12/14 17:26:36;;;;;;;15.68;6.50;;;;;;;;;;10288654;28;20047;-71
2021/12/14 17:31:42;;;;;;;15.80;6.90;;;;;;;;;;10277655;28;20312;-72
2021/12/14 17:36:47;;;;;;;33.65;11.02;;;;;;;;;;10287524;28;20053;-72
2021/12/14 17:41:50;;;;;;;18.17;6.25;;;;;;;;;;10286448;28;20097;-73
2021/12/14 17:47:00;;;;;;;14.43;6.32;;;;;;;;;;10283990;28;20039;-72
2021/12/14 17:52:08;;;;;;;17.02;6.53;;;;;;;;;;10280080;28;20439;-72
2021/12/14 17:57:16;;;;;;;14.95;6.38;;;;;;;;;;10283111;28;20070;-72
2021/12/14 18:02:22;;;;;;;18.48;7.43;;;;;;;;;;10290445;28;20055;-72
2021/12/14 18:07:25;;;;;;;16.15;6.18;;;;;;;;;;10300841;28;20061;-72
2021/12/14 18:12:28;;;;;;;13.52;5.05;;;;;;;;;;10279975;28;20043;-69
2021/12/14 18:17:48;;;;;;;25.73;9.93;;;;;;;;;;10274609;28;20121;-73
2021/12/14 18:22:51;;;;;;;18.90;8.38;;;;;;;;;;10272814;28;20066;-71
2021/12/14 18:27:54;;;;;;;15.30;6.85;;;;;;;;;;10267554;28;20535;-74
2021/12/14 18:32:58;;;;;;;17.67;6.90;;;;;;;;;;10265133;28;20113;-72
2021/12/14 18:38:05;;;;;;;17.98;7.95;;;;;;;;;;10288666;28;20043;-72
2021/12/14 18:43:14;;;;;;;23.75;8.15;;;;;;;;;;10281855;28;20134;-73
2021/12/14 18:53:40;;;;;;;36.38;13.98;;;;;;;;;;10295995;28;20045;-72
2021/12/14 18:58:44;;;;;;;23.25;8.70;;;;;;;;;;10288210;28;20065;-72
2021/12/14 19:03:53;;;;;;;23.58;9.80;;;;;;;;;;10283153;28;20062;-73
2021/12/14 19:09:02;;;;;;;30.05;11.23;;;;;;;;;;10296399;28;20042;-72
2021/12/14 19:14:07;;;;;;;30.83;10.07;;;;;;;;;;10282325;28;20057;-72
2021/12/14 19:19:12;;;;;;;23.20;8.57;;;;;;;;;;10287488;28;20047;-73
2021/12/14 19:24:16;;;;;;;23.10;8.40;;;;;;;;;;10304141;28;20034;-72
2021/12/14 19:29:21;;;;;;;23.13;9.07;;;;;;;;;;10286419;28;20713;-72
2021/12/14 19:34:23;;;;;;;;;;;;;;;;;;10286992;28;20579;-74
2021/12/14 19:39:30;;;;;;;24.95;8.27;;;;;;;;;;10349947;23;19944;-70
2021/12/14 19:44:38;;;;;;;35.30;12.10;;;;;;;;;;10347086;28;20045;-70
2021/12/14 19:49:44;;;;;;;26.00;10.30;;;;;;;;;;10346702;28;20038;-70
2021/12/14 19:54:50;;;;;;;21.35;8.00;;;;;;;;;;10362683;28;20464;-70
2021/12/14 19:59:54;;;;;;;22.38;8.10;;;;;;;;;;10357135;28;20141;-70
2021/12/14 20:04:58;;;;;;;21.70;8.68;;;;;;;;;;10350869;28;20462;-72
2021/12/14 20:10:01;;;;;;;;;;;;;;;;;;10358952;28;20486;-70
2021/12/14 20:15:09;;;;;;;22.30;7.38;;;;;;;;;;10355499;28;20028;-70
2021/12/14 20:20:15;;;;;;;22.38;8.77;;;;;;;;;;10353972;28;20038;-70
2021/12/14 20:25:23;;;;;;;25.00;9.40;;;;;;;;;;10362680;28;20092;-71
2021/12/14 20:30:28;;;;;;;18.75;8.48;;;;;;;;;;10351267;28;20476;-70
2021/12/14 20:35:32;;;;;;;20.67;7.40;;;;;;;;;;10349995;28;20139;-69
2021/12/14 20:40:36;;;;;;;;;;;;;;;;;;10359127;28;20037;-70
2021/12/14 20:45:52;;;;;;;15.60;5.50;;;;;;;;;;10359172;28;19927;-70
2021/12/14 20:50:57;;;;;;;13.27;4.97;;;;;;;;;;10352364;28;20030;-70
2021/12/14 20:56:05;;;;;;;19.27;7.45;;;;;;;;;;10349405;28;20049;-70
2021/12/14 21:01:09;;;;;;;16.77;6.30;;;;;;;;;;10356897;28;20068;-69
2021/12/14 21:06:20;;;;;;;16.45;6.05;;;;;;;;;;10357253;28;20129;-71
2021/12/14 21:11:28;;;;;;;19.48;7.68;;;;;;;;;;10363305;28;20034;-70
2021/12/14 21:16:35;;;;;;;19.65;7.05;;;;;;;;;;10365424;28;20468;-70
2021/12/14 21:21:42;;;;;;;17.75;7.00;;;;;;;;;;10360060;28;20076;-68
2021/12/14 21:26:46;;;;;;;20.15;7.40;;;;;;;;;;10361669;28;20066;-69
2021/12/14 21:31:51;;;;;;;11.90;4.47;;;;;;;;;;10362827;28;20513;-71
2021/12/14 21:36:56;;;;;;;18.70;7.20;;;;;;;;;;10368522;28;20541;-70
2021/12/14 21:42:02;;;;;;;19.50;8.07;;;;;;;;;;10365071;28;20220;-70
2021/12/14 21:47:11;;;;;;;26.85;8.68;;;;;;;;;;10352507;28;20110;-69
2021/12/14 21:52:15;;;;;;;20.23;7.22;;;;;;;;;;10356611;28;20125;-70
2021/12/14 21:57:20;;;;;;;19.57;7.47;;;;;;;;;;10357169;28;20049;-70
2021/12/14 22:02:24;;;;;;;22.25;7.72;;;;;;;;;;10348347;28;20053;-68
2021/12/14 22:07:27;;;;;;;21.55;7.03;;;;;;;;;;10350860;28;20486;-68
2021/12/14 22:12:37;;;;;;;21.25;6.20;;;;;;;;;;10352081;28;20068;-70
2021/12/14 22:17:41;;;;;;;18.77;5.03;;;;;;;;;;10347011;28;20045;-69
2021/12/14 22:22:45;;;;;;;21.83;7.10;;;;;;;;;;10349227;28;20038;-71
2021/12/14 22:27:48;;;;;;;19.58;6.13;;;;;;;;;;10350127;28;20034;-71
2021/12/14 22:32:52;;;;;;;15.97;5.27;;;;;;;;;;10348195;28;20565;-69
2021/12/14 22:37:56;;;;;;;17.13;5.90;;;;;;;;;;10351780;28;20084;-72
2021/12/14 22:44:05;;;;;;;21.60;6.30;;;;;;;;;;10358011;28;20455;-71
2021/12/14 22:48:23;;;;;;;23.08;7.35;;;;;;;;;;10361357;28;20044;-69
2021/12/14 22:53:26;;;;;;;23.98;6.68;;;;;;;;;;10358084;28;20040;-71
2021/12/14 22:58:30;;;;;;;20.42;6.78;;;;;;;;;;10356341;28;20096;-71
2021/12/14 23:03:34;;;;;;;21.98;8.07;;;;;;;;;;10360123;28;20069;-71
2021/12/14 23:08:37;;;;;;;24.48;6.68;;;;;;;;;;10361881;28;20092;-71
2021/12/14 23:13:43;;;;;;;17.48;5.72;;;;;;;;;;10354180;28;20034;-69
2021/12/14 23:18:53;;;;;;;20.57;6.07;;;;;;;;;;10361922;28;20052;-70
2021/12/14 23:23:57;;;;;;;20.20;6.60;;;;;;;;;;10358623;28;20054;-72
2021/12/14 23:29:00;;;;;;;25.00;6.70;;;;;;;;;;10364476;28;20045;-71
2021/12/14 23:34:04;;;;;;;24.48;6.97;;;;;;;;;;10346893;28;20417;-71
2021/12/14 23:39:09;;;;;;;19.13;5.57;;;;;;;;;;10353345;28;20049;-71
2021/12/14 23:44:22;;;;;;;21.10;6.93;;;;;;;;;;10350941;28;20128;-71
2021/12/14 23:49:26;;;;;;;17.35;6.13;;;;;;;;;;10356565;28;20038;-68
2021/12/14 23:54:30;;;;;;;18.88;6.00;;;;;;;;;;10353257;28;20041;-69
2021/12/14 23:59:33;;;;;;;14.25;5.53;;;;;;;;;;10354714;28;20038;-70
